createdAt,value
2018-04-14T00:00:22.740Z,85.16
2018-04-14T00:01:22.780Z,84.78
2018-04-14T00:02:22.809Z,84.97
2018-04-14T00:03:22.844Z,85.35
2018-04-14T00:04:22.878Z,85.25
2018-04-14T00:05:22.914Z,85.54
2018-04-14T00:06:22.952Z,85.45
2018-04-14T00:07:23.147Z,85.25
2018-04-14T00:08:23.021Z,85.06
2018-04-14T00:09:23.055Z,85.83
2018-04-14T00:10:23.094Z,86.02
2018-04-14T00:11:23.122Z,85.83
2018-04-14T00:12:23.159Z,85.93
2018-04-14T00:13:23.196Z,85.83
2018-04-14T00:14:23.232Z,85.73
2018-04-14T00:15:23.265Z,85.73
2018-04-14T00:16:23.301Z,85.83
2018-04-14T00:17:23.333Z,85.93
2018-04-14T00:18:23.369Z,86.02
2018-04-14T00:19:23.666Z,85.64
2018-04-14T00:20:23.438Z,86.11
2018-04-14T00:21:23.477Z,86.02
2018-04-14T00:22:23.512Z,85.83
2018-04-14T00:23:23.547Z,85.93
2018-04-14T00:24:23.579Z,86.49
2018-04-14T00:25:23.611Z,86.11
2018-04-14T00:26:23.650Z,86.59
2018-04-14T00:27:23.684Z,86.3
2018-04-14T00:28:23.717Z,86.49
2018-04-14T00:29:23.753Z,86.69
2018-04-14T00:30:23.785Z,86.59
2018-04-14T00:31:23.857Z,86.78
2018-04-14T00:32:23.855Z,86.78
2018-04-14T00:33:23.893Z,87.07
2018-04-14T00:34:24.198Z,87.16
2018-04-14T00:35:23.962Z,86.78
2018-04-14T00:36:23.996Z,86.78
2018-04-14T00:37:24.035Z,86.98
2018-04-14T00:38:24.069Z,86.78
2018-04-14T00:39:24.105Z,86.69
2018-04-14T00:40:24.136Z,86.49
2018-04-14T00:41:24.168Z,86.98
2018-04-14T00:42:24.207Z,87.16
2018-04-14T00:43:24.241Z,86.59
2018-04-14T00:44:24.546Z,86.59
2018-04-14T00:45:24.313Z,86.78
2018-04-14T00:46:24.346Z,86.69
2018-04-14T00:47:24.381Z,86.59
2018-04-14T00:48:24.413Z,86.59
2018-04-14T00:49:24.710Z,86.59
2018-04-14T00:50:24.749Z,86.88
2018-04-14T00:51:24.778Z,87.07
2018-04-14T00:52:24.553Z,86.78
2018-04-14T00:53:24.587Z,86.69
2018-04-14T00:54:24.624Z,87.07
2018-04-14T00:55:24.663Z,86.98
2018-04-14T00:56:24.693Z,86.88
2018-04-14T00:57:24.729Z,86.98
2018-04-14T00:58:24.774Z,87.07
2018-04-14T00:59:24.800Z,86.98
2018-04-14T01:00:24.832Z,87.35
2018-04-14T01:01:24.868Z,87.07
2018-04-14T01:02:24.904Z,87.35
2018-04-14T01:03:24.941Z,87.07
2018-04-14T01:04:24.976Z,87.35
2018-04-14T01:05:25.012Z,87.16
2018-04-14T01:06:25.043Z,87.54
2018-04-14T01:07:25.353Z,87.54
2018-04-14T01:08:25.111Z,87.45
2018-04-14T01:09:25.149Z,87.45
2018-04-14T01:10:25.185Z,87.35
2018-04-14T01:11:25.478Z,87.26
2018-04-14T01:12:25.253Z,87.35
2018-04-14T01:13:25.290Z,87.35
2018-04-14T01:14:25.323Z,87.16
2018-04-14T01:15:25.358Z,87.45
2018-04-14T01:16:25.392Z,87.64
2018-04-14T01:17:25.427Z,87.54
2018-04-14T01:18:25.464Z,87.64
2018-04-14T01:19:25.539Z,87.64
2018-04-14T01:20:25.538Z,87.45
2018-04-14T01:21:25.564Z,86.98
2018-04-14T01:22:25.869Z,87.45
2018-04-14T01:23:25.638Z,87.26
2018-04-14T01:24:25.669Z,87.64
2018-04-14T01:25:25.707Z,87.26
2018-04-14T01:26:25.741Z,87.54
2018-04-14T01:27:25.775Z,86.88
2018-04-14T01:28:25.807Z,86.98
2018-04-14T01:29:26.105Z,87.35
2018-04-14T01:30:25.881Z,86.98
2018-04-14T01:31:25.915Z,86.69
2018-04-14T01:32:25.950Z,87.07
2018-04-14T01:33:25.987Z,86.78
2018-04-14T01:34:26.021Z,86.69
2018-04-14T01:35:26.056Z,86.78
2018-04-14T01:36:26.095Z,86.88
2018-04-14T01:37:26.122Z,86.78
2018-04-14T01:38:26.158Z,86.88
2018-04-14T01:39:26.192Z,86.78
2018-04-14T01:40:26.228Z,86.59
2018-04-14T01:41:26.271Z,86.59
2018-04-14T01:42:26.296Z,86.98
2018-04-14T01:43:26.331Z,87.26
2018-04-14T01:44:26.368Z,87.35
2018-04-14T01:45:26.400Z,87.54
2018-04-14T01:46:26.436Z,87.54
2018-04-14T01:47:26.470Z,86.98
2018-04-14T01:48:26.505Z,88.12
2018-04-14T01:49:26.538Z,87.93
2018-04-14T01:50:26.576Z,87.83
2018-04-14T01:51:26.608Z,88.02
2018-04-14T01:52:26.643Z,88.02
2018-04-14T01:53:26.681Z,88.21
2018-04-14T01:54:26.975Z,88.02
2018-04-14T01:55:26.753Z,88.31
2018-04-14T01:56:26.783Z,87.93
2018-04-14T01:57:26.816Z,88.88
2018-04-14T01:58:26.853Z,88.88
2018-04-14T01:59:26.889Z,88.78
2018-04-14T02:00:26.924Z,88.4
2018-04-14T02:01:26.964Z,88.59
2018-04-14T02:02:26.993Z,88.5
2018-04-14T02:03:27.285Z,89.07
2018-04-14T02:04:27.063Z,88.88
2018-04-14T02:05:27.096Z,88.69
2018-04-14T02:06:27.131Z,88.5
2018-04-14T02:07:27.203Z,88.5
2018-04-14T02:08:27.207Z,88.02
2018-04-14T02:09:27.236Z,88.31
2018-04-14T02:10:27.269Z,87.93
2018-04-14T02:11:27.303Z,88.21
2018-04-14T02:12:27.338Z,88.02
2018-04-14T02:13:27.376Z,88.69
2018-04-14T02:14:27.416Z,88.88
2018-04-14T02:15:27.443Z,88.5
2018-04-14T02:16:27.487Z,88.5
2018-04-14T02:17:27.513Z,88.5
2018-04-14T02:18:27.559Z,88.4
2018-04-14T02:19:27.591Z,88.4
2018-04-14T02:20:27.880Z,89.17
2018-04-14T02:21:27.650Z,88.98
2018-04-14T02:22:27.685Z,88.98
2018-04-14T02:23:27.723Z,89.07
2018-04-14T02:24:27.759Z,88.98
2018-04-14T02:25:27.789Z,88.98
2018-04-14T02:26:27.826Z,88.98
2018-04-14T02:27:27.859Z,89.17
2018-04-14T02:28:27.898Z,88.78
2018-04-14T02:29:27.933Z,89.17
2018-04-14T02:30:27.965Z,88.4
2018-04-14T02:31:28.259Z,88.69
2018-04-14T02:32:28.035Z,88.21
2018-04-14T02:33:28.342Z,88.5
2018-04-14T02:34:28.107Z,88.98
2018-04-14T02:35:28.136Z,88.12
2018-04-14T02:36:28.175Z,88.31
2018-04-14T02:37:28.208Z,88.31
2018-04-14T02:38:28.261Z,88.12
2018-04-14T02:39:28.275Z,88.4
2018-04-14T02:40:28.308Z,88.12
2018-04-14T02:41:28.344Z,88.02
2018-04-14T02:42:28.379Z,88.02
2018-04-14T02:43:28.413Z,87.83
2018-04-14T02:44:28.452Z,88.21
2018-04-14T02:45:28.486Z,88.31
2018-04-14T02:46:28.522Z,88.02
2018-04-14T02:47:28.556Z,87.83
2018-04-14T02:48:28.845Z,87.83
2018-04-14T02:49:28.624Z,88.4
2018-04-14T02:50:28.659Z,87.74
2018-04-14T02:51:28.693Z,87.64
2018-04-14T02:52:28.732Z,87.93
2018-04-14T02:53:28.765Z,87.74
2018-04-14T02:54:28.799Z,87.35
2018-04-14T02:55:28.834Z,87.45
2018-04-14T02:56:28.869Z,87.54
2018-04-14T02:57:28.902Z,87.07
2018-04-14T02:58:28.934Z,87.83
2018-04-14T02:59:28.970Z,87.26
2018-04-14T03:00:29.018Z,87.07
2018-04-14T03:01:29.044Z,86.98
2018-04-14T03:02:29.076Z,87.16
2018-04-14T03:03:29.111Z,86.88
2018-04-14T03:04:29.148Z,86.98
2018-04-14T03:05:29.180Z,86.78
2018-04-14T03:06:29.215Z,87.07
2018-04-14T03:07:29.251Z,86.78
2018-04-14T03:08:29.283Z,86.69
2018-04-14T03:09:29.321Z,86.88
2018-04-14T03:10:29.357Z,87.07
2018-04-14T03:11:29.391Z,86.69
2018-04-14T03:12:29.425Z,86.4
2018-04-14T03:13:29.460Z,86.02
2018-04-14T03:14:29.494Z,86.4
2018-04-14T03:15:29.529Z,86.11
2018-04-14T03:16:29.561Z,86.4
2018-04-14T03:17:29.602Z,85.83
2018-04-14T03:18:29.634Z,85.54
2018-04-14T03:19:29.668Z,85.93
2018-04-14T03:20:29.703Z,85.64
2018-04-14T03:21:29.737Z,86.21
2018-04-14T03:22:29.775Z,86.21
2018-04-14T03:23:29.807Z,86.3
2018-04-14T03:24:29.841Z,86.59
2018-04-14T03:25:29.874Z,86.4
2018-04-14T03:26:29.917Z,86.49
2018-04-14T03:27:29.947Z,86.49
2018-04-14T03:28:29.983Z,86.21
2018-04-14T03:29:30.019Z,86.21
2018-04-14T03:30:30.054Z,86.21
2018-04-14T03:31:30.093Z,86.3
2018-04-14T03:32:30.122Z,86.21
2018-04-14T03:33:30.420Z,86.21
2018-04-14T03:34:30.189Z,86.02
2018-04-14T03:35:30.222Z,86.4
2018-04-14T03:36:30.261Z,86.21
2018-04-14T03:37:30.298Z,86.02
2018-04-14T03:38:30.329Z,86.02
2018-04-14T03:39:30.366Z,86.11
2018-04-14T03:40:30.403Z,86.3
2018-04-14T03:41:30.434Z,86.11
2018-04-14T03:42:30.471Z,86.4
2018-04-14T03:43:30.504Z,86.21
2018-04-14T03:44:30.537Z,86.21
2018-04-14T03:45:30.575Z,86.4
2018-04-14T03:46:30.608Z,86.02
2018-04-14T03:47:30.645Z,86.21
2018-04-14T03:48:30.679Z,86.59
2018-04-14T03:49:30.713Z,86.4
2018-04-14T03:50:30.750Z,86.59
2018-04-14T03:51:30.786Z,86.4
2018-04-14T03:52:30.816Z,86.4
2018-04-14T03:53:30.851Z,86.78
2018-04-14T03:54:30.890Z,86.02
2018-04-14T03:55:30.923Z,86.59
2018-04-14T03:56:30.956Z,86.02
2018-04-14T03:57:30.991Z,86.4
2018-04-14T03:58:31.026Z,86.49
2018-04-14T03:59:31.065Z,86.49
2018-04-14T04:00:31.101Z,85.93
2018-04-14T04:01:31.132Z,86.21
2018-04-14T04:02:31.166Z,86.21
2018-04-14T04:03:31.205Z,85.83
2018-04-14T04:04:31.237Z,86.4
2018-04-14T04:05:31.271Z,86.49
2018-04-14T04:06:31.308Z,86.21
2018-04-14T04:07:31.603Z,86.4
2018-04-14T04:08:31.376Z,86.4
2018-04-14T04:09:31.413Z,86.4
2018-04-14T04:10:31.446Z,86.4
2018-04-14T04:11:31.483Z,86.3
2018-04-14T04:12:31.517Z,86.4
2018-04-14T04:13:31.553Z,86.11
2018-04-14T04:14:31.587Z,86.3
2018-04-14T04:15:31.624Z,86.02
2018-04-14T04:16:31.654Z,86.4
2018-04-14T04:17:31.688Z,86.21
2018-04-14T04:18:31.727Z,86.4
2018-04-14T04:19:31.761Z,86.49
2018-04-14T04:20:31.796Z,85.93
2018-04-14T04:21:31.828Z,86.4
2018-04-14T04:22:31.869Z,86.02
2018-04-14T04:23:31.900Z,85.93
2018-04-14T04:24:31.935Z,86.3
2018-04-14T04:25:31.970Z,86.54
2018-04-14T04:26:32.002Z,86.63
2018-04-14T04:27:32.044Z,86.11
2018-04-14T04:28:32.073Z,86.02
2018-04-14T04:29:32.108Z,86.35
2018-04-14T04:30:32.147Z,86.16
2018-04-14T04:31:32.181Z,86.35
2018-04-14T04:32:32.217Z,85.58
2018-04-14T04:33:32.252Z,85.97
2018-04-14T04:34:32.285Z,85.83
2018-04-14T04:35:32.318Z,85.97
2018-04-14T04:36:32.352Z,85.64
2018-04-14T04:37:32.390Z,85.77
2018-04-14T04:38:32.685Z,86.06
2018-04-14T04:39:32.464Z,85.68
2018-04-14T04:40:32.492Z,85.87
2018-04-14T04:41:32.528Z,86.06
2018-04-14T04:42:32.564Z,85.49
2018-04-14T04:43:32.596Z,85.39
2018-04-14T04:44:32.634Z,85.39
2018-04-14T04:45:32.668Z,85.58
2018-04-14T04:46:32.704Z,85.49
2018-04-14T04:47:32.738Z,85.39
2018-04-14T04:48:32.776Z,85.01
2018-04-14T04:49:32.808Z,84.92
2018-04-14T04:50:32.843Z,84.92
2018-04-14T04:51:32.877Z,84.72
2018-04-14T04:52:32.915Z,84.63
2018-04-14T04:53:32.948Z,84.72
2018-04-14T04:54:32.984Z,84.63
2018-04-14T04:55:33.018Z,84.44
2018-04-14T04:56:33.054Z,84.44
2018-04-14T04:57:33.091Z,84.16
2018-04-14T04:58:33.168Z,84.53
2018-04-14T04:59:33.157Z,84.53
2018-04-14T05:00:33.193Z,84.25
2018-04-14T05:01:33.230Z,84.44
2018-04-14T05:02:33.265Z,84.53
2018-04-14T05:03:33.299Z,84.06
2018-04-14T05:04:33.338Z,83.77
2018-04-14T05:05:33.368Z,83.67
2018-04-14T05:06:33.405Z,83.29
2018-04-14T05:07:33.438Z,83.48
2018-04-14T05:08:33.477Z,83.48
2018-04-14T05:09:33.511Z,83.39
2018-04-14T05:10:33.544Z,83.58
2018-04-14T05:11:33.581Z,83.58
2018-04-14T05:12:33.617Z,82.82
2018-04-14T05:13:33.648Z,82.91
2018-04-14T05:14:33.682Z,82.63
2018-04-14T05:15:33.721Z,82.82
2018-04-14T05:16:33.756Z,82.72
2018-04-14T05:17:33.791Z,82.43
2018-04-14T05:18:33.827Z,83.11
2018-04-14T05:19:33.860Z,83.11
2018-04-14T05:20:33.896Z,82.53
2018-04-14T05:21:33.930Z,82.19
2018-04-14T05:22:33.967Z,82.19
2018-04-14T05:23:34.006Z,82.57
2018-04-14T05:24:34.040Z,82
2018-04-14T05:25:34.071Z,82.29
2018-04-14T05:26:34.111Z,82
2018-04-14T05:27:34.146Z,82.23
2018-04-14T05:28:34.181Z,82.71
2018-04-14T05:29:34.219Z,81.47
2018-04-14T05:30:34.252Z,81.51
2018-04-14T05:31:34.301Z,80.27
2018-04-14T05:32:34.330Z,79.5
2018-04-14T05:33:34.361Z,79.12
2018-04-14T05:34:34.394Z,79.69
2018-04-14T05:35:34.431Z,78.83
2018-04-14T05:36:34.468Z,78.64
2018-04-14T05:37:34.509Z,78.55
2018-04-14T05:38:34.537Z,78.64
2018-04-14T05:39:34.578Z,78.55
2018-04-14T05:40:34.612Z,78.89
2018-04-14T05:41:34.656Z,78.13
2018-04-14T05:42:34.684Z,77.84
2018-04-14T05:43:34.721Z,78.13
2018-04-14T05:44:34.756Z,77.94
2018-04-14T05:45:34.793Z,78.13
2018-04-14T05:46:34.826Z,78.22
2018-04-14T05:47:34.863Z,77.94
2018-04-14T05:48:34.900Z,77.94
2018-04-14T05:49:34.938Z,77.7
2018-04-14T05:50:35.239Z,77.84
2018-04-14T05:51:35.007Z,77.23
2018-04-14T05:52:35.042Z,77.61
2018-04-14T05:53:35.076Z,78.09
2018-04-14T05:54:35.113Z,77.8
2018-04-14T05:55:35.147Z,77.51
2018-04-14T05:56:35.182Z,77.32
2018-04-14T05:57:35.220Z,77.42
2018-04-14T05:58:35.251Z,77.7
2018-04-14T05:59:35.289Z,77.42
2018-04-14T06:00:35.332Z,77.7
2018-04-14T06:01:35.362Z,77.23
2018-04-14T06:02:35.397Z,77.32
2018-04-14T06:03:35.431Z,77.61
2018-04-14T06:04:35.470Z,77.51
2018-04-14T06:05:35.504Z,77.03
2018-04-14T06:06:35.801Z,77.61
2018-04-14T06:07:35.571Z,77.61
2018-04-14T06:08:35.608Z,77.51
2018-04-14T06:09:35.912Z,77.03
2018-04-14T06:10:35.682Z,77.32
2018-04-14T06:11:35.716Z,77.42
2018-04-14T06:12:35.757Z,77.61
2018-04-14T06:13:35.824Z,76.75
2018-04-14T06:14:35.824Z,77.08
2018-04-14T06:15:35.857Z,76.94
2018-04-14T06:16:35.895Z,76.84
2018-04-14T06:17:35.932Z,76.75
2018-04-14T06:18:35.967Z,76.5
2018-04-14T06:19:36.003Z,76.98
2018-04-14T06:20:36.036Z,76.98
2018-04-14T06:21:36.074Z,76.65
2018-04-14T06:22:36.107Z,75.93
2018-04-14T06:23:36.412Z,75.98
2018-04-14T06:24:36.178Z,76.12
2018-04-14T06:25:36.215Z,75.64
2018-04-14T06:26:36.512Z,75.79
2018-04-14T06:27:36.287Z,75.83
2018-04-14T06:28:36.323Z,75.35
2018-04-14T06:29:36.357Z,75.16
2018-04-14T06:30:36.652Z,74.65
2018-04-14T06:31:36.428Z,74.93
2018-04-14T06:32:36.491Z,74.49
2018-04-14T06:33:36.503Z,74.55
2018-04-14T06:34:36.535Z,74.59
2018-04-14T06:35:36.571Z,74.93
2018-04-14T06:36:36.612Z,74.98
2018-04-14T06:37:36.643Z,74.88
2018-04-14T06:38:36.678Z,74.98
2018-04-14T06:39:36.713Z,74.93
2018-04-14T06:40:36.747Z,74.69
2018-04-14T06:41:36.788Z,74.49
2018-04-14T06:42:36.825Z,74.78
2018-04-14T06:43:36.857Z,74.21
2018-04-14T06:44:36.896Z,74.4
2018-04-14T06:45:36.927Z,74.3
2018-04-14T06:46:36.963Z,73.73
2018-04-14T06:47:37.007Z,74.24
2018-04-14T06:48:37.040Z,73.96
2018-04-14T06:49:37.076Z,75.87
2018-04-14T06:50:37.111Z,77.15
2018-04-14T06:51:37.151Z,76.62
2018-04-14T06:52:37.187Z,74.36
2018-04-14T06:53:37.492Z,72.23
2018-04-14T06:54:37.262Z,71.56
2018-04-14T06:55:37.295Z,70.54
2018-04-14T06:56:37.336Z,70.06
2018-04-14T06:57:37.372Z,69.2
2018-04-14T06:58:37.411Z,68.91
2018-04-14T06:59:37.449Z,67.47
2018-04-14T07:00:37.490Z,67.47
2018-04-14T07:01:37.525Z,67.72
2018-04-14T07:02:37.566Z,67.82
2018-04-14T07:03:37.599Z,67.91
2018-04-14T07:04:37.655Z,67.72
2018-04-14T07:05:37.673Z,67.63
2018-04-14T07:06:37.714Z,67.5
2018-04-14T07:07:37.749Z,67.79
2018-04-14T07:08:37.793Z,67.5
2018-04-14T07:09:37.822Z,67.69
2018-04-14T07:10:37.861Z,68.46
2018-04-14T07:11:37.902Z,68.65
2018-04-14T07:12:37.937Z,69.26
2018-04-14T07:13:37.977Z,69.23
2018-04-14T07:14:38.016Z,69.3
2018-04-14T07:15:38.057Z,68.31
2018-04-14T07:16:38.096Z,67.42
2018-04-14T07:17:38.137Z,63.54
2018-04-14T07:18:38.176Z,61.1
2018-04-14T07:19:38.212Z,59.58
2018-04-14T07:20:38.303Z,58.97
2018-04-14T07:21:38.293Z,58.3
2018-04-14T07:22:38.334Z,57.69
2018-04-14T07:23:38.637Z,57.37
2018-04-14T07:24:38.414Z,57.67
2018-04-14T07:25:38.454Z,58.4
2018-04-14T07:26:38.496Z,59.66
2018-04-14T07:27:38.534Z,58.63
2018-04-14T07:28:38.576Z,57.92
2018-04-14T07:29:38.614Z,57.56
2018-04-14T07:30:38.663Z,55.68
2018-04-14T07:31:38.698Z,54.55
2018-04-14T07:32:38.745Z,51.97
2018-04-14T07:33:38.781Z,51.07
2018-04-14T07:34:38.826Z,50.96
2018-04-14T07:35:38.863Z,50.06
2018-04-14T07:36:38.904Z,49.75
2018-04-14T07:37:38.993Z,49.43
2018-04-14T07:38:38.982Z,49.38
2018-04-14T07:39:39.022Z,50.32
2018-04-14T07:40:39.069Z,51.07
2018-04-14T07:41:39.104Z,51.33
2018-04-14T07:42:39.148Z,51.98
2018-04-14T07:43:39.181Z,52.43
2018-04-14T07:44:39.221Z,52.53
2018-04-14T07:45:39.263Z,53.36
2018-04-14T07:46:39.299Z,54.06
2018-04-14T07:47:39.338Z,54.25
2018-04-14T07:48:39.380Z,55.24
2018-04-14T07:49:39.418Z,54.91
2018-04-14T07:50:39.459Z,54.08
2018-04-14T07:51:39.554Z,53.45
2018-04-14T07:52:39.808Z,52.55
2018-04-14T07:53:39.584Z,51.34
2018-04-14T07:54:39.624Z,49.75
2018-04-14T07:55:39.665Z,49.12
2018-04-14T07:56:39.711Z,47.5
2018-04-14T07:57:39.756Z,46.83
2018-04-14T07:58:39.796Z,46.46
2018-04-14T07:59:39.838Z,45.22
2018-04-14T08:00:39.881Z,43.6
2018-04-14T08:01:39.923Z,43.33
2018-04-14T08:02:39.970Z,42.75
2018-04-14T08:03:40.013Z,42.09
2018-04-14T08:04:40.057Z,40.34
2018-04-14T08:05:40.102Z,39.39
2018-04-14T08:06:40.148Z,38.99
2018-04-14T08:07:40.200Z,39.06
2018-04-14T08:08:40.240Z,37.98
2018-04-14T08:09:40.280Z,38.15
2018-04-14T08:10:40.320Z,38.62
2018-04-14T08:11:40.700Z,39.37
2018-04-14T08:12:40.408Z,39.76
2018-04-14T08:13:40.454Z,38.81
2018-04-14T08:14:40.760Z,38.93
2018-04-14T08:15:40.544Z,38.07
2018-04-14T08:16:40.597Z,37.41
2018-04-14T08:17:40.640Z,37.05
2018-04-14T08:18:40.677Z,35.98
2018-04-14T08:19:40.723Z,35.3
2018-04-14T08:20:40.768Z,36.25
2018-04-14T08:21:40.814Z,36.62
2018-04-14T08:22:40.861Z,36.43
2018-04-14T08:23:40.901Z,36.51
2018-04-14T08:24:41.317Z,36.51
2018-04-14T08:25:40.991Z,36.32
2018-04-14T08:26:41.037Z,36.24
2018-04-14T08:27:41.084Z,36.14
2018-04-14T08:28:41.135Z,35.48
2018-04-14T08:29:41.170Z,35.38
2018-04-14T08:30:41.219Z,34.62
2018-04-14T08:31:41.265Z,34.64
2018-04-14T08:32:41.311Z,34.46
2018-04-14T08:33:41.358Z,34.28
2018-04-14T08:34:41.403Z,33.91
2018-04-14T08:35:41.451Z,32.96
2018-04-14T08:36:41.495Z,32.59
2018-04-14T08:37:41.545Z,31.9
2018-04-14T08:38:41.589Z,31.32
2018-04-14T08:39:41.635Z,31.32
2018-04-14T08:40:41.686Z,30.75
2018-04-14T08:41:41.737Z,31.03
2018-04-14T08:42:41.779Z,31.04
